sensor_id;sensor_type;location;lat;lon;timestamp;pressure;altitude;pressure_sealevel;temperature;humidity
11314;BME280;5712;48.858;9.206;2024-03-08T11:16:49;97580.81;;;6.72;95.28
11314;BME280;5712;48.858;9.206;2024-03-08T11:19:26;97601.78;;;6.86;98.19
11314;BME280;5712;48.858;9.206;2024-03-08T11:22:03;97602.44;;;6.89;99.42
11314;BME280;5712;48.858;9.206;2024-03-08T11:24:39;97582.19;;;6.77;96.67
11314;BME280;5712;48.858;9.206;2024-03-08T11:27:07;97582.41;;;6.60;96.65
11314;BME280;5712;48.858;9.206;2024-03-08T11:29:38;97580.09;;;6.42;97.03
11314;BME280;5712;48.858;9.206;2024-03-08T11:32:10;97581.50;;;6.19;96.99
11314;BME280;5712;48.858;9.206;2024-03-08T11:34:36;97582.59;;;6.01;98.81
11314;BME280;5712;48.858;9.206;2024-03-08T11:37:04;97603.59;;;6.01;100.00
11314;BME280;5712;48.858;9.206;2024-03-08T11:39:35;97600.41;;;6.10;100.00
11314;BME280;5712;48.858;9.206;2024-03-08T11:42:03;97587.75;;;6.17;100.00
11314;BME280;5712;48.858;9.206;2024-03-08T11:44:30;97587.09;;;6.41;100.00
11314;BME280;5712;48.858;9.206;2024-03-08T11:46:57;97580.72;;;6.59;100.00
11314;BME280;5712;48.858;9.206;2024-03-08T11:49:25;97570.97;;;6.75;100.00
11314;BME280;5712;48.858;9.206;2024-03-08T11:51:52;97573.75;;;6.86;100.00
11314;BME280;5712;48.858;9.206;2024-03-08T11:54:19;97580.09;;;6.96;100.00
11314;BME280;5712;48.858;9.206;2024-03-08T11:56:46;97538.28;;;6.93;97.16
11314;BME280;5712;48.858;9.206;2024-03-08T11:59:13;97526.63;;;6.97;95.74
11314;BME280;5712;48.858;9.206;2024-03-08T12:01:40;97554.53;;;7.12;100.00
11314;BME280;5712;48.858;9.206;2024-03-08T12:04:06;97535.03;;;7.16;98.90
11314;BME280;5712;48.858;9.206;2024-03-08T12:06:38;97536.31;;;7.23;99.79
11314;BME280;5712;48.858;9.206;2024-03-08T12:09:08;97506.63;;;7.21;96.46
11314;BME280;5712;48.858;9.206;2024-03-08T12:11:35;97522.00;;;7.27;98.35
11314;BME280;5712;48.858;9.206;2024-03-08T12:14:02;97512.03;;;7.32;97.91
11314;BME280;5712;48.858;9.206;2024-03-08T12:16:29;97509.84;;;7.38;97.38
11314;BME280;5712;48.858;9.206;2024-03-08T12:18:56;97510.06;;;7.48;98.54
11314;BME280;5712;48.858;9.206;2024-03-08T12:21:23;97487.38;;;7.47;95.38
11314;BME280;5712;48.858;9.206;2024-03-08T12:24:06;97479.16;;;7.51;95.91
11314;BME280;5712;48.858;9.206;2024-03-08T12:26:35;97493.66;;;7.57;96.71
11314;BME280;5712;48.858;9.206;2024-03-08T12:29:16;97498.44;;;7.64;98.63
11314;BME280;5712;48.858;9.206;2024-03-08T12:31:45;97477.28;;;7.66;93.77
11314;BME280;5712;48.858;9.206;2024-03-08T12:34:12;97478.00;;;7.68;95.24
11314;BME280;5712;48.858;9.206;2024-03-08T12:36:44;97457.84;;;7.68;92.79
11314;BME280;5712;48.858;9.206;2024-03-08T12:39:16;97456.78;;;7.71;93.07
11314;BME280;5712;48.858;9.206;2024-03-08T12:41:43;97456.78;;;7.71;93.91
11314;BME280;5712;48.858;9.206;2024-03-08T12:44:12;97453.53;;;7.67;92.77
11314;BME280;5712;48.858;9.206;2024-03-08T12:46:38;97469.09;;;7.83;95.58
11314;BME280;5712;48.858;9.206;2024-03-08T12:49:07;97461.28;;;7.94;95.32
11314;BME280;5712;48.858;9.206;2024-03-08T12:51:33;97442.03;;;7.93;93.33
11314;BME280;5712;48.858;9.206;2024-03-08T12:54:00;97439.84;;;7.87;92.93
11314;BME280;5712;48.858;9.206;2024-03-08T12:56:30;97436.03;;;8.04;93.79
11314;BME280;5712;48.858;9.206;2024-03-08T12:58:58;97411.19;;;8.08;90.27
11314;BME280;5712;48.858;9.206;2024-03-08T13:01:25;97396.41;;;8.18;88.52
11314;BME280;5712;48.858;9.206;2024-03-08T13:03:52;97412.66;;;8.24;90.56
11314;BME280;5712;48.858;9.206;2024-03-08T13:06:19;97410.41;;;8.31;91.52
11314;BME280;5712;48.858;9.206;2024-03-08T13:08:50;97386.22;;;8.26;88.37
11314;BME280;5712;48.858;9.206;2024-03-08T13:11:16;97401.41;;;8.22;90.33
11314;BME280;5712;48.858;9.206;2024-03-08T13:13:44;97380.78;;;8.40;87.72
11314;BME280;5712;48.858;9.206;2024-03-08T13:16:11;97365.28;;;8.48;85.83
11314;BME280;5712;48.858;9.206;2024-03-08T13:18:40;97368.41;;;8.53;85.94
11314;BME280;5712;48.858;9.206;2024-03-08T13:21:07;97365.44;;;8.57;86.01
11314;BME280;5712;48.858;9.206;2024-03-08T13:23:35;97358.38;;;8.58;85.59
11314;BME280;5712;48.858;9.206;2024-03-08T13:26:04;97364.88;;;8.65;86.26
11314;BME280;5712;48.858;9.206;2024-03-08T13:28:31;97352.44;;;8.67;84.71
11314;BME280;5712;48.858;9.206;2024-03-08T13:31:03;97339.50;;;8.64;82.51
11314;BME280;5712;48.858;9.206;2024-03-08T13:33:32;97348.13;;;8.66;84.56
11314;BME280;5712;48.858;9.206;2024-03-08T13:36:01;97348.16;;;8.77;85.55
11314;BME280;5712;48.858;9.206;2024-03-08T13:38:28;97352.13;;;8.82;87.07
11314;BME280;5712;48.858;9.206;2024-03-08T13:40:57;97362.00;;;8.91;88.03
11314;BME280;5712;48.858;9.206;2024-03-08T13:43:24;97334.94;;;8.89;85.04
11314;BME280;5712;48.858;9.206;2024-03-08T13:45:50;97333.28;;;8.99;84.57
11314;BME280;5712;48.858;9.206;2024-03-08T13:48:19;97311.38;;;8.99;82.17
11314;BME280;5712;48.858;9.206;2024-03-08T13:50:45;97319.88;;;9.02;84.57
11314;BME280;5712;48.858;9.206;2024-03-08T13:53:12;97313.41;;;9.06;82.65
11314;BME280;5712;48.858;9.206;2024-03-08T13:55:38;97296.75;;;9.06;81.96
11314;BME280;5712;48.858;9.206;2024-03-08T13:58:06;97293.16;;;9.07;81.34
11314;BME280;5712;48.858;9.206;2024-03-08T14:00:34;97290.63;;;9.05;79.17
11314;BME280;5712;48.858;9.206;2024-03-08T14:03:01;97322.88;;;9.09;83.67
11314;BME280;5712;48.858;9.206;2024-03-08T14:05:32;97303.25;;;9.13;81.94
11314;BME280;5712;48.858;9.206;2024-03-08T14:08:00;97294.16;;;9.17;81.71
11314;BME280;5712;48.858;9.206;2024-03-08T14:10:28;97293.03;;;9.19;81.47
11314;BME280;5712;48.858;9.206;2024-03-08T14:12:56;97297.72;;;9.16;81.64
11314;BME280;5712;48.858;9.206;2024-03-08T14:15:23;97283.59;;;9.17;81.02
11314;BME280;5712;48.858;9.206;2024-03-08T14:17:53;97285.03;;;9.21;81.71
11314;BME280;5712;48.858;9.206;2024-03-08T14:20:20;97268.03;;;9.25;79.34
11314;BME280;5712;48.858;9.206;2024-03-08T14:22:51;97274.88;;;9.27;81.10
11314;BME280;5712;48.858;9.206;2024-03-08T14:25:18;97265.88;;;9.30;80.53
11314;BME280;5712;48.858;9.206;2024-03-08T14:27:45;97259.66;;;9.31;80.07
11314;BME280;5712;48.858;9.206;2024-03-08T14:30:12;97258.56;;;9.33;80.30
11314;BME280;5712;48.858;9.206;2024-03-08T14:32:57;97243.09;;;9.40;78.49
11314;BME280;5712;48.858;9.206;2024-03-08T14:35:23;97250.78;;;9.43;80.00
11314;BME280;5712;48.858;9.206;2024-03-08T14:37:51;97226.94;;;9.44;76.81
11314;BME280;5712;48.858;9.206;2024-03-08T14:40:18;97235.44;;;9.48;77.99
11314;BME280;5712;48.858;9.206;2024-03-08T14:42:47;97245.72;;;9.51;78.37
11314;BME280;5712;48.858;9.206;2024-03-08T14:45:14;97256.06;;;9.54;79.58
11314;BME280;5712;48.858;9.206;2024-03-08T14:47:41;97225.22;;;9.54;76.79
11314;BME280;5712;48.858;9.206;2024-03-08T14:50:08;97228.72;;;9.55;76.82
11314;BME280;5712;48.858;9.206;2024-03-08T14:52:37;97229.66;;;9.54;78.27
11314;BME280;5712;48.858;9.206;2024-03-08T14:55:07;97229.41;;;9.57;78.02
11314;BME280;5712;48.858;9.206;2024-03-08T14:57:37;97224.13;;;9.57;78.08
11314;BME280;5712;48.858;9.206;2024-03-08T15:00:06;97209.41;;;9.54;77.54
11314;BME280;5712;48.858;9.206;2024-03-08T15:02:34;97223.53;;;9.53;79.25
11314;BME280;5712;48.858;9.206;2024-03-08T15:05:02;97213.84;;;9.54;78.59
11314;BME280;5712;48.858;9.206;2024-03-08T15:07:34;97207.72;;;9.53;77.78
11314;BME280;5712;48.858;9.206;2024-03-08T15:10:00;97203.28;;;9.54;77.58
11314;BME280;5712;48.858;9.206;2024-03-08T15:12:28;97204.13;;;9.54;78.20
11314;BME280;5712;48.858;9.206;2024-03-08T15:14:55;97209.41;;;9.54;79.56
11314;BME280;5712;48.858;9.206;2024-03-08T15:17:21;97195.63;;;9.51;77.86
11314;BME280;5712;48.858;9.206;2024-03-08T15:19:49;97196.81;;;9.47;78.50
11314;BME280;5712;48.858;9.206;2024-03-08T15:22:17;97177.41;;;9.48;77.74
11314;BME280;5712;48.858;9.206;2024-03-08T15:24:44;97182.53;;;9.49;78.91
11314;BME280;5712;48.858;9.206;2024-03-08T15:27:10;97182.19;;;9.54;79.48
11314;BME280;5712;48.858;9.206;2024-03-08T15:29:38;97175.00;;;9.56;79.07
11314;BME280;5712;48.858;9.206;2024-03-08T15:32:05;97168.03;;;9.55;77.63
11314;BME280;5712;48.858;9.206;2024-03-08T15:34:32;97166.38;;;9.54;77.81
11314;BME280;5712;48.858;9.206;2024-03-08T15:37:03;97168.75;;;9.57;78.86
11314;BME280;5712;48.858;9.206;2024-03-08T15:39:29;97149.31;;;9.58;76.98
11314;BME280;5712;48.858;9.206;2024-03-08T15:41:58;97167.78;;;9.58;79.01
11314;BME280;5712;48.858;9.206;2024-03-08T15:44:25;97165.16;;;9.58;78.57
11314;BME280;5712;48.858;9.206;2024-03-08T15:46:54;97132.91;;;9.54;75.19
11314;BME280;5712;48.858;9.206;2024-03-08T15:49:20;97138.28;;;9.53;75.51
11314;BME280;5712;48.858;9.206;2024-03-08T15:51:47;97130.53;;;9.51;75.62
11314;BME280;5712;48.858;9.206;2024-03-08T15:54:13;97142.16;;;9.49;77.80
11314;BME280;5712;48.858;9.206;2024-03-08T15:56:40;97156.66;;;9.43;80.19
11314;BME280;5712;48.858;9.206;2024-03-08T15:59:06;97149.81;;;9.41;79.46
11314;BME280;5712;48.858;9.206;2024-03-08T16:01:33;97147.69;;;9.35;80.02
11314;BME280;5712;48.858;9.206;2024-03-08T16:04:01;97164.72;;;9.31;81.85
11314;BME280;5712;48.858;9.206;2024-03-08T16:06:29;97157.28;;;9.25;81.66
11314;BME280;5712;48.858;9.206;2024-03-08T16:08:56;97140.88;;;9.21;79.80
11314;BME280;5712;48.858;9.206;2024-03-08T16:11:24;97128.78;;;9.19;79.41
11314;BME280;5712;48.858;9.206;2024-03-08T16:13:51;97138.00;;;9.13;80.75
11314;BME280;5712;48.858;9.206;2024-03-08T16:16:17;97139.34;;;9.08;80.81
11314;BME280;5712;48.858;9.206;2024-03-08T16:18:44;97139.69;;;9.03;81.66
11314;BME280;5712;48.858;9.206;2024-03-08T16:21:12;97121.63;;;8.99;78.58
11314;BME280;5712;48.858;9.206;2024-03-08T16:23:38;97107.47;;;9.00;76.75
11314;BME280;5712;48.858;9.206;2024-03-08T16:26:05;97106.63;;;8.99;77.91
11314;BME280;5712;48.858;9.206;2024-03-08T16:28:33;97101.84;;;8.93;77.59
11314;BME280;5712;48.858;9.206;2024-03-08T16:31:04;97101.50;;;8.87;78.32
11314;BME280;5712;48.858;9.206;2024-03-08T16:33:32;97109.75;;;8.82;78.38
11314;BME280;5712;48.858;9.206;2024-03-08T16:36:00;97134.09;;;8.75;80.92
11314;BME280;5712;48.858;9.206;2024-03-08T16:38:29;97127.59;;;8.68;80.69
11314;BME280;5712;48.858;9.206;2024-03-08T16:40:55;97107.63;;;8.65;78.96
11314;BME280;5712;48.858;9.206;2024-03-08T16:43:25;97128.66;;;8.54;81.50
11314;BME280;5712;48.858;9.206;2024-03-08T16:45:53;97128.53;;;8.45;82.40
11314;BME280;5712;48.858;9.206;2024-03-08T16:48:21;97143.09;;;8.27;83.18
11314;BME280;5712;48.858;9.206;2024-03-08T16:50:49;97145.66;;;8.16;84.38
11314;BME280;5712;48.858;9.206;2024-03-08T16:53:15;97148.25;;;8.05;85.39
11314;BME280;5712;48.858;9.206;2024-03-08T16:55:44;97153.72;;;7.91;85.88
11314;BME280;5712;48.858;9.206;2024-03-08T16:58:11;97146.63;;;7.80;86.16
11314;BME280;5712;48.858;9.206;2024-03-08T17:00:39;97143.81;;;7.71;86.78
11314;BME280;5712;48.858;9.206;2024-03-08T17:03:07;97150.91;;;7.58;87.42
11314;BME280;5712;48.858;9.206;2024-03-08T17:05:34;97153.34;;;7.48;87.38
11314;BME280;5712;48.858;9.206;2024-03-08T17:08:03;97155.50;;;7.43;88.23
11314;BME280;5712;48.858;9.206;2024-03-08T17:10:31;97148.16;;;7.36;88.72
11314;BME280;5712;48.858;9.206;2024-03-08T17:13:00;97141.44;;;7.32;88.26
11314;BME280;5712;48.858;9.206;2024-03-08T17:15:29;97147.38;;;7.23;89.78
11314;BME280;5712;48.858;9.206;2024-03-08T17:17:59;97141.31;;;7.10;90.62
11314;BME280;5712;48.858;9.206;2024-03-08T17:20:31;97149.31;;;6.96;91.15
11314;BME280;5712;48.858;9.206;2024-03-08T17:23:02;97157.31;;;6.82;92.84
11314;BME280;5712;48.858;9.206;2024-03-08T17:25:31;97151.34;;;6.68;93.59
11314;BME280;5712;48.858;9.206;2024-03-08T17:27:58;97148.94;;;6.52;94.54
11314;BME280;5712;48.858;9.206;2024-03-08T17:30:28;97157.75;;;6.39;95.19
11314;BME280;5712;48.858;9.206;2024-03-08T17:32:56;97160.16;;;6.29;95.79
11314;BME280;5712;48.858;9.206;2024-03-08T17:35:24;97154.59;;;6.21;96.93
11314;BME280;5712;48.858;9.206;2024-03-08T17:37:52;97162.13;;;6.13;97.49
11314;BME280;5712;48.858;9.206;2024-03-08T17:40:23;97162.00;;;6.02;98.79
11314;BME280;5712;48.858;9.206;2024-03-08T17:42:50;97156.31;;;5.96;98.66
11314;BME280;5712;48.858;9.206;2024-03-08T17:45:18;97155.78;;;5.91;99.30
11314;BME280;5712;48.858;9.206;2024-03-08T17:47:47;97153.69;;;5.83;99.18
11314;BME280;5712;48.858;9.206;2024-03-08T17:50:14;97157.63;;;5.76;100.00
11314;BME280;5712;48.858;9.206;2024-03-08T17:52:43;97160.72;;;5.69;100.00
11314;BME280;5712;48.858;9.206;2024-03-08T17:55:10;97162.25;;;5.59;100.00
11314;BME280;5712;48.858;9.206;2024-03-08T17:57:40;97165.91;;;5.56;100.00
11314;BME280;5712;48.858;9.206;2024-03-08T18:00:08;97164.44;;;5.52;100.00
11314;BME280;5712;48.858;9.206;2024-03-08T18:02:43;97154.38;;;5.46;100.00
11314;BME280;5712;48.858;9.206;2024-03-08T18:05:11;97156.44;;;5.41;100.00
11314;BME280;5712;48.858;9.206;2024-03-08T18:07:40;97145.16;;;5.27;100.00
11314;BME280;5712;48.858;9.206;2024-03-08T18:10:08;97143.06;;;5.05;100.00
11314;BME280;5712;48.858;9.206;2024-03-08T18:12:35;97152.41;;;4.95;100.00
11314;BME280;5712;48.858;9.206;2024-03-08T18:15:02;97157.84;;;4.92;100.00
11314;BME280;5712;48.858;9.206;2024-03-08T18:17:28;97152.63;;;4.78;100.00
11314;BME280;5712;48.858;9.206;2024-03-08T18:19:55;97153.16;;;4.83;100.00
11314;BME280;5712;48.858;9.206;2024-03-08T18:22:23;97156.16;;;5.05;100.00
11314;BME280;5712;48.858;9.206;2024-03-08T18:24:49;97138.72;;;5.18;100.00
11314;BME280;5712;48.858;9.206;2024-03-08T18:27:17;97129.53;;;5.25;100.00
11314;BME280;5712;48.858;9.206;2024-03-08T18:29:43;97127.00;;;5.24;100.00
11314;BME280;5712;48.858;9.206;2024-03-08T18:32:11;97119.81;;;5.13;100.00
11314;BME280;5712;48.858;9.206;2024-03-08T18:34:37;97124.00;;;5.03;100.00
11314;BME280;5712;48.858;9.206;2024-03-08T18:37:08;97118.19;;;4.98;100.00
11314;BME280;5712;48.858;9.206;2024-03-08T18:39:39;97124.28;;;4.85;100.00
11314;BME280;5712;48.858;9.206;2024-03-08T18:42:06;97127.19;;;4.80;100.00
11314;BME280;5712;48.858;9.206;2024-03-08T18:44:33;97143.28;;;4.74;100.00
11314;BME280;5712;48.858;9.206;2024-03-08T18:46:59;97139.94;;;4.72;100.00
11314;BME280;5712;48.858;9.206;2024-03-08T18:49:26;97133.19;;;4.68;100.00
11314;BME280;5712;48.858;9.206;2024-03-08T18:51:52;97129.84;;;4.66;100.00
11314;BME280;5712;48.858;9.206;2024-03-08T18:54:19;97132.44;;;4.52;100.00
11314;BME280;5712;48.858;9.206;2024-03-08T18:56:47;97140.66;;;4.46;100.00
11314;BME280;5712;48.858;9.206;2024-03-08T18:59:16;97140.28;;;4.38;100.00
11314;BME280;5712;48.858;9.206;2024-03-08T19:01:43;97128.16;;;4.37;100.00
11314;BME280;5712;48.858;9.206;2024-03-08T19:04:13;97127.31;;;4.37;100.00
11314;BME280;5712;48.858;9.206;2024-03-08T19:06:40;97129.84;;;4.38;100.00
11314;BME280;5712;48.858;9.206;2024-03-08T19:09:06;97121.91;;;4.40;100.00
11314;BME280;5712;48.858;9.206;2024-03-08T19:11:34;97118.63;;;4.50;100.00
11314;BME280;5712;48.858;9.206;2024-03-08T19:14:03;97120.13;;;4.54;100.00
11314;BME280;5712;48.858;9.206;2024-03-08T19:16:29;97118.69;;;4.63;100.00
11314;BME280;5712;48.858;9.206;2024-03-08T19:18:56;97109.09;;;4.63;100.00
11314;BME280;5712;48.858;9.206;2024-03-08T19:21:23;97104.03;;;4.74;100.00
11314;BME280;5712;48.858;9.206;2024-03-08T19:23:49;97104.84;;;4.89;98.73
11314;BME280;5712;48.858;9.206;2024-03-08T19:26:16;97096.59;;;4.95;97.94
11314;BME280;5712;48.858;9.206;2024-03-08T19:28:47;97098.00;;;5.00;97.12
11314;BME280;5712;48.858;9.206;2024-03-08T19:31:15;97107.34;;;4.90;97.60
11314;BME280;5712;48.858;9.206;2024-03-08T19:33:41;97111.88;;;4.74;99.12
11314;BME280;5712;48.858;9.206;2024-03-08T19:36:08;97123.47;;;4.56;100.00
11314;BME280;5712;48.858;9.206;2024-03-08T19:38:37;97120.69;;;4.45;100.00
11314;BME280;5712;48.858;9.206;2024-03-08T19:41:05;97127.22;;;4.24;100.00
11314;BME280;5712;48.858;9.206;2024-03-08T19:43:33;97133.63;;;4.05;100.00
11314;BME280;5712;48.858;9.206;2024-03-08T19:45:59;97141.34;;;3.92;100.00
11314;BME280;5712;48.858;9.206;2024-03-08T19:48:27;97138.63;;;3.94;100.00
11314;BME280;5712;48.858;9.206;2024-03-08T19:50:54;97126.81;;;4.02;100.00
11314;BME280;5712;48.858;9.206;2024-03-08T19:53:24;97126.31;;;3.96;100.00
11314;BME280;5712;48.858;9.206;2024-03-08T19:55:51;97127.53;;;3.90;100.00
11314;BME280;5712;48.858;9.206;2024-03-08T19:58:18;97134.03;;;3.83;100.00
11314;BME280;5712;48.858;9.206;2024-03-08T20:00:45;97128.53;;;3.88;100.00
11314;BME280;5712;48.858;9.206;2024-03-08T20:03:12;97122.38;;;3.89;100.00
11314;BME280;5712;48.858;9.206;2024-03-08T20:05:47;97128.91;;;3.82;100.00
11314;BME280;5712;48.858;9.206;2024-03-08T20:08:14;97123.00;;;3.78;100.00
11314;BME280;5712;48.858;9.206;2024-03-08T20:10:40;97127.41;;;3.78;100.00
11314;BME280;5712;48.858;9.206;2024-03-08T20:13:07;97118.16;;;3.86;100.00
11314;BME280;5712;48.858;9.206;2024-03-08T20:15:34;97118.38;;;3.83;99.98
11314;BME280;5712;48.858;9.206;2024-03-08T20:18:05;97114.06;;;3.82;99.96
11314;BME280;5712;48.858;9.206;2024-03-08T20:20:33;97115.81;;;3.68;100.00
11314;BME280;5712;48.858;9.206;2024-03-08T20:23:06;97113.84;;;3.71;100.00
11314;BME280;5712;48.858;9.206;2024-03-08T20:25:34;97110.88;;;3.77;99.87
11314;BME280;5712;48.858;9.206;2024-03-08T20:28:03;97107.34;;;3.78;98.96
11314;BME280;5712;48.858;9.206;2024-03-08T20:30:32;97100.94;;;3.84;98.62
11314;BME280;5712;48.858;9.206;2024-03-08T20:32:59;97089.34;;;3.88;98.05
11314;BME280;5712;48.858;9.206;2024-03-08T20:35:27;97081.34;;;3.91;97.40
11314;BME280;5712;48.858;9.206;2024-03-08T20:37:56;97083.84;;;3.92;97.19
11314;BME280;5712;48.858;9.206;2024-03-08T20:40:26;97084.13;;;3.88;96.79
11314;BME280;5712;48.858;9.206;2024-03-08T20:42:57;97080.84;;;3.84;96.66
11314;BME280;5712;48.858;9.206;2024-03-08T20:45:25;97082.13;;;3.77;96.94
11314;BME280;5712;48.858;9.206;2024-03-08T20:47:52;97090.03;;;3.62;97.78
11314;BME280;5712;48.858;9.206;2024-03-08T20:50:19;97084.16;;;3.58;98.19
11314;BME280;5712;48.858;9.206;2024-03-08T20:52:49;97086.75;;;3.58;97.70
11314;BME280;5712;48.858;9.206;2024-03-08T20:55:16;97083.38;;;3.56;97.66
11314;BME280;5712;48.858;9.206;2024-03-08T20:57:48;97079.66;;;3.60;98.07
11314;BME280;5712;48.858;9.206;2024-03-08T21:00:15;97081.00;;;3.67;98.29
11314;BME280;5712;48.858;9.206;2024-03-08T21:03:00;97073.72;;;3.72;98.37
11314;BME280;5712;48.858;9.206;2024-03-08T21:05:28;97072.25;;;3.82;97.46
11314;BME280;5712;48.858;9.206;2024-03-08T21:07:55;97063.84;;;3.77;96.90
11314;BME280;5712;48.858;9.206;2024-03-08T21:10:21;97074.28;;;3.63;96.87
11314;BME280;5712;48.858;9.206;2024-03-08T21:12:51;97078.72;;;3.61;97.54
11314;BME280;5712;48.858;9.206;2024-03-08T21:15:19;97063.47;;;3.69;96.84
11314;BME280;5712;48.858;9.206;2024-03-08T21:17:46;97068.13;;;3.64;97.40
11314;BME280;5712;48.858;9.206;2024-03-08T21:20:13;97073.69;;;3.58;98.52
11314;BME280;5712;48.858;9.206;2024-03-08T21:22:42;97079.28;;;3.52;99.16
11314;BME280;5712;48.858;9.206;2024-03-08T21:25:11;97082.06;;;3.49;99.49
11314;BME280;5712;48.858;9.206;2024-03-08T21:27:39;97078.97;;;3.43;100.00
11314;BME280;5712;48.858;9.206;2024-03-08T21:30:08;97074.94;;;3.37;100.00
11314;BME280;5712;48.858;9.206;2024-03-08T21:32:35;97088.13;;;3.20;100.00
11314;BME280;5712;48.858;9.206;2024-03-08T21:35:03;97094.53;;;3.15;100.00
11314;BME280;5712;48.858;9.206;2024-03-08T21:37:31;97097.19;;;3.13;100.00
11314;BME280;5712;48.858;9.206;2024-03-08T21:39:57;97102.09;;;3.19;100.00
11314;BME280;5712;48.858;9.206;2024-03-08T21:42:25;97100.25;;;3.21;100.00
11314;BME280;5712;48.858;9.206;2024-03-08T21:44:52;97098.25;;;3.11;100.00
11314;BME280;5712;48.858;9.206;2024-03-08T21:47:22;97103.09;;;3.01;100.00
11314;BME280;5712;48.858;9.206;2024-03-08T21:49:48;97111.19;;;2.97;100.00
11314;BME280;5712;48.858;9.206;2024-03-08T21:52:16;97110.53;;;2.93;100.00
11314;BME280;5712;48.858;9.206;2024-03-08T21:54:45;97114.06;;;2.92;100.00
11314;BME280;5712;48.858;9.206;2024-03-08T21:57:12;97109.38;;;2.99;100.00
11314;BME280;5712;48.858;9.206;2024-03-08T21:59:39;97104.81;;;3.02;100.00
11314;BME280;5712;48.858;9.206;2024-03-08T22:02:07;97102.97;;;3.04;100.00
11314;BME280;5712;48.858;9.206;2024-03-08T22:04:35;97094.19;;;3.05;100.00
11314;BME280;5712;48.858;9.206;2024-03-08T22:07:01;97097.06;;;3.16;100.00
11314;BME280;5712;48.858;9.206;2024-03-08T22:09:29;97082.13;;;3.18;100.00
11314;BME280;5712;48.858;9.206;2024-03-08T22:11:56;97083.41;;;3.11;100.00
11314;BME280;5712;48.858;9.206;2024-03-08T22:14:22;97075.19;;;3.03;100.00
11314;BME280;5712;48.858;9.206;2024-03-08T22:16:49;97077.88;;;3.02;100.00
11314;BME280;5712;48.858;9.206;2024-03-08T22:19:16;97077.19;;;3.14;100.00
11314;BME280;5712;48.858;9.206;2024-03-08T22:21:45;97067.25;;;3.20;100.00
11314;BME280;5712;48.858;9.206;2024-03-08T22:24:11;97065.19;;;3.25;100.00
11314;BME280;5712;48.858;9.206;2024-03-08T22:26:38;97059.88;;;3.27;100.00
11314;BME280;5712;48.858;9.206;2024-03-08T22:29:04;97077.91;;;3.16;100.00
11314;BME280;5712;48.858;9.206;2024-03-08T22:31:35;97077.00;;;3.01;100.00
11314;BME280;5712;48.858;9.206;2024-03-08T22:34:05;97085.09;;;2.97;100.00
11314;BME280;5712;48.858;9.206;2024-03-08T22:36:31;97077.03;;;2.86;100.00
11314;BME280;5712;48.858;9.206;2024-03-08T22:39:00;97087.66;;;2.83;100.00
11314;BME280;5712;48.858;9.206;2024-03-08T22:41:27;97078.56;;;2.74;100.00
11314;BME280;5712;48.858;9.206;2024-03-08T22:43:55;97085.03;;;2.67;100.00
11314;BME280;5712;48.858;9.206;2024-03-08T22:46:22;97092.28;;;2.62;100.00
11314;BME280;5712;48.858;9.206;2024-03-08T22:48:49;97084.78;;;2.56;100.00
11314;BME280;5712;48.858;9.206;2024-03-08T22:51:16;97078.03;;;2.52;100.00
11314;BME280;5712;48.858;9.206;2024-03-08T22:53:49;97080.97;;;2.46;100.00
11314;BME280;5712;48.858;9.206;2024-03-08T22:56:17;97082.84;;;2.44;100.00
11314;BME280;5712;48.858;9.206;2024-03-08T22:58:44;97090.84;;;2.41;100.00
11314;BME280;5712;48.858;9.206;2024-03-08T23:01:10;97083.75;;;2.43;100.00
11314;BME280;5712;48.858;9.206;2024-03-08T23:03:40;97086.97;;;2.48;100.00
11314;BME280;5712;48.858;9.206;2024-03-08T23:06:08;97094.72;;;2.50;100.00
11314;BME280;5712;48.858;9.206;2024-03-08T23:08:37;97100.44;;;2.56;100.00
11314;BME280;5712;48.858;9.206;2024-03-08T23:11:06;97097.66;;;2.59;100.00
11314;BME280;5712;48.858;9.206;2024-03-08T23:13:38;97095.56;;;2.66;100.00
11314;BME280;5712;48.858;9.206;2024-03-08T23:16:06;97086.13;;;2.79;100.00
11314;BME280;5712;48.858;9.206;2024-03-08T23:18:33;97090.19;;;2.84;100.00
11314;BME280;5712;48.858;9.206;2024-03-08T23:21:00;97086.31;;;2.91;100.00
11314;BME280;5712;48.858;9.206;2024-03-08T23:23:28;97086.38;;;2.90;100.00
11314;BME280;5712;48.858;9.206;2024-03-08T23:25:54;97084.63;;;2.90;100.00
11314;BME280;5712;48.858;9.206;2024-03-08T23:28:21;97088.13;;;2.89;100.00
11314;BME280;5712;48.858;9.206;2024-03-08T23:30:49;97083.97;;;2.87;100.00
11314;BME280;5712;48.858;9.206;2024-03-08T23:33:16;97084.63;;;2.90;100.00
11314;BME280;5712;48.858;9.206;2024-03-08T23:35:43;97090.19;;;2.84;100.00
11314;BME280;5712;48.858;9.206;2024-03-08T23:38:10;97091.44;;;2.77;100.00
11314;BME280;5712;48.858;9.206;2024-03-08T23:40:36;97102.97;;;2.73;100.00
11314;BME280;5712;48.858;9.206;2024-03-08T23:43:03;97101.38;;;2.71;100.00
11314;BME280;5712;48.858;9.206;2024-03-08T23:45:30;97102.03;;;2.74;100.00
11314;BME280;5712;48.858;9.206;2024-03-08T23:47:59;97116.94;;;2.72;100.00
11314;BME280;5712;48.858;9.206;2024-03-08T23:50:26;97110.19;;;2.68;100.00
11314;BME280;5712;48.858;9.206;2024-03-08T23:52:56;97109.66;;;2.62;100.00
11314;BME280;5712;48.858;9.206;2024-03-08T23:55:26;97113.38;;;2.58;100.00
11314;BME280;5712;48.858;9.206;2024-03-08T23:57:53;97111.84;;;2.54;100.00
